createdAt,value
2023-05-20T00:01:39.437Z,14.30
2023-05-20T00:04:07.866Z,16.20
2023-05-20T00:06:37.817Z,18.10
2023-05-20T00:09:06.112Z,16.27
2023-05-20T00:11:34.435Z,14.60
2023-05-20T00:14:02.751Z,18.67
2023-05-20T00:16:31.210Z,18.60
2023-05-20T00:18:59.547Z,17.63
2023-05-20T00:21:27.882Z,17.23
2023-05-20T00:23:57.486Z,16.97
2023-05-20T00:26:26.072Z,15.83
2023-05-20T00:28:56.472Z,14.90
2023-05-20T00:31:24.910Z,16.63
2023-05-20T00:33:53.210Z,14.20
2023-05-20T00:36:21.649Z,14.73
2023-05-20T00:38:50.077Z,16.80
2023-05-20T00:41:19.936Z,17.07
2023-05-20T00:43:48.203Z,18.33
2023-05-20T00:46:16.583Z,17.73
2023-05-20T00:48:45.886Z,16.97
2023-05-20T00:51:15.687Z,16.87
2023-05-20T00:53:44.977Z,17.70
2023-05-20T00:56:13.969Z,17.90
2023-05-20T00:58:43.833Z,17.83
2023-05-20T01:01:12.147Z,16.10
2023-05-20T01:03:42.187Z,17.63
2023-05-20T01:06:10.561Z,16.90
2023-05-20T01:08:38.987Z,20.20
2023-05-20T01:11:11.626Z,18.63
2023-05-20T01:13:44.889Z,18.37
2023-05-20T01:16:14.431Z,17.70
2023-05-20T01:18:44.480Z,20.50
2023-05-20T01:21:14.830Z,18.57
2023-05-20T01:23:44.731Z,18.27
2023-05-20T01:26:13.803Z,17.93
2023-05-20T01:28:44.636Z,21.23
2023-05-20T01:31:19.366Z,21.20
2023-05-20T01:33:51.728Z,19.03
2023-05-20T01:36:22.143Z,20.37
2023-05-20T01:38:53.936Z,19.90
2023-05-20T01:41:24.905Z,21.27
2023-05-20T01:43:55.986Z,18.90
2023-05-20T01:46:24.528Z,19.10
2023-05-20T01:48:54.111Z,18.43
2023-05-20T01:51:22.474Z,19.40
2023-05-20T01:53:52.147Z,17.93
2023-05-20T01:56:22.024Z,17.83
2023-05-20T01:58:51.026Z,18.80
2023-05-20T02:01:19.431Z,19.23
2023-05-20T02:03:47.719Z,19.97
2023-05-20T02:06:16.033Z,19.70
2023-05-20T02:08:44.363Z,19.67
2023-05-20T02:11:14.094Z,21.27
2023-05-20T02:13:42.437Z,21.23
2023-05-20T02:16:11.018Z,20.27
2023-05-20T02:18:39.688Z,22.43
2023-05-20T02:21:08.160Z,22.47
2023-05-20T02:23:36.449Z,21.40
2023-05-20T02:26:04.854Z,21.40
2023-05-20T02:28:34.557Z,23.03
2023-05-20T02:31:02.875Z,24.07
2023-05-20T02:33:33.130Z,27.50
2023-05-20T02:36:02.017Z,22.50
2023-05-20T02:38:31.817Z,25.83
2023-05-20T02:41:00.122Z,24.93
2023-05-20T02:43:28.526Z,23.17
2023-05-20T02:45:58.188Z,22.40
2023-05-20T02:48:26.715Z,25.17
2023-05-20T02:50:55.360Z,25.33
2023-05-20T02:53:23.872Z,22.10
2023-05-20T02:55:52.268Z,25.80
2023-05-20T02:58:26.479Z,23.57
2023-05-20T03:00:55.256Z,23.60
2023-05-20T03:03:25.168Z,25.27
2023-05-20T03:05:53.502Z,25.10
2023-05-20T03:08:22.856Z,22.60
2023-05-20T03:10:51.714Z,26.33
2023-05-20T03:13:20.014Z,24.80
2023-05-20T03:15:48.301Z,25.23
2023-05-20T03:18:16.616Z,26.70
2023-05-20T03:20:47.649Z,25.33
2023-05-20T03:23:16.028Z,28.83
2023-05-20T03:25:44.294Z,28.57
2023-05-20T03:28:12.859Z,28.23
2023-05-20T03:30:41.152Z,24.33
2023-05-20T03:33:09.764Z,29.97
2023-05-20T03:35:38.060Z,27.70
2023-05-20T03:38:07.701Z,22.83
2023-05-20T03:40:38.377Z,27.37
2023-05-20T03:43:07.244Z,29.40
2023-05-20T03:45:35.829Z,28.23
2023-05-20T03:48:07.711Z,24.57
2023-05-20T03:50:37.276Z,27.40
2023-05-20T03:53:07.196Z,21.77
2023-05-20T03:55:40.806Z,26.80
2023-05-20T03:58:09.728Z,25.90
2023-05-20T04:00:38.054Z,26.23
2023-05-20T04:03:06.634Z,26.20
2023-05-20T04:05:37.297Z,27.30
2023-05-20T04:08:13.630Z,23.87
2023-05-20T04:10:43.528Z,25.23
2023-05-20T04:13:13.442Z,28.77
2023-05-20T04:15:42.726Z,27.13
2023-05-20T04:18:12.164Z,26.43
2023-05-20T04:20:41.328Z,24.67
2023-05-20T04:23:11.461Z,23.80
2023-05-20T04:25:41.297Z,24.13
2023-05-20T04:28:10.815Z,24.80
2023-05-20T04:30:39.214Z,23.23
2023-05-20T04:33:08.865Z,26.80
2023-05-20T04:35:37.730Z,26.23
2023-05-20T04:38:07.691Z,27.37
2023-05-20T04:40:37.551Z,26.03
2023-05-20T04:43:06.048Z,25.13
2023-05-20T04:45:35.746Z,26.27
2023-05-20T04:48:04.342Z,24.40
2023-05-20T04:50:32.626Z,27.77
2023-05-20T04:53:00.960Z,23.93
2023-05-20T04:55:30.807Z,24.00
2023-05-20T04:58:00.618Z,21.23
2023-05-20T05:00:29.710Z,25.03
2023-05-20T05:02:58.136Z,23.23
2023-05-20T05:05:26.458Z,26.07
2023-05-20T05:07:55.124Z,24.90
2023-05-20T05:10:25.181Z,21.70
2023-05-20T05:12:53.473Z,21.73
2023-05-20T05:15:23.256Z,22.73
2023-05-20T05:17:51.604Z,25.50
2023-05-20T05:20:20.120Z,20.63
2023-05-20T05:22:50.406Z,20.63
2023-05-20T05:25:18.770Z,23.63
2023-05-20T05:27:49.238Z,23.27
2023-05-20T05:30:17.869Z,20.87
2023-05-20T05:32:47.653Z,21.30
2023-05-20T05:35:16.119Z,23.07
2023-05-20T05:37:44.537Z,23.80
2023-05-20T05:40:14.264Z,24.83
2023-05-20T05:42:42.603Z,21.67
2023-05-20T05:45:13.436Z,20.57
2023-05-20T05:48:42.857Z,25.07
2023-05-20T05:54:44.126Z,26.47
2023-05-20T05:57:27.079Z,22.07
2023-05-20T06:00:45.176Z,22.40
2023-05-20T06:03:46.146Z,21.97
2023-05-20T06:07:14.434Z,22.87
2023-05-20T06:10:05.516Z,22.60
2023-05-20T06:17:47.302Z,26.17
2023-05-20T06:24:00.382Z,22.80
2023-05-20T06:26:57.261Z,23.57
2023-05-20T06:27:12.989Z,24.20
2023-05-20T06:30:07.159Z,18.83
2023-05-20T21:22:00.799Z,6.93
2023-05-20T21:24:29.360Z,6.53
2023-05-20T21:26:57.911Z,5.87
2023-05-20T21:29:26.590Z,5.73
2023-05-20T21:31:55.204Z,7.67
2023-05-20T21:34:24.598Z,7.53
2023-05-20T21:36:53.129Z,4.97
2023-05-20T21:39:22.810Z,7.93
2023-05-20T21:41:51.195Z,7.37
2023-05-20T21:44:19.730Z,6.90
2023-05-20T21:46:48.029Z,6.63
2023-05-20T21:49:16.400Z,6.43
2023-05-20T21:51:44.733Z,9.67
2023-05-20T21:54:13.065Z,7.70
2023-05-20T21:56:42.694Z,7.00
2023-05-20T21:59:10.937Z,7.97
2023-05-20T22:01:39.292Z,8.63
2023-05-20T22:04:07.957Z,7.37
2023-05-20T22:06:36.787Z,8.53
2023-05-20T22:09:05.912Z,6.60
2023-05-20T22:11:34.243Z,8.67
2023-05-20T22:14:04.879Z,7.03
2023-05-20T22:16:33.366Z,7.33
2023-05-20T22:19:02.547Z,8.40
2023-05-20T22:21:34.206Z,7.37
2023-05-20T22:24:08.057Z,7.77
2023-05-20T22:26:36.502Z,7.53
2023-05-20T22:29:06.377Z,6.23
2023-05-20T22:31:34.695Z,7.40
2023-05-20T22:34:04.513Z,8.40
2023-05-20T22:36:36.386Z,8.37
2023-05-20T22:39:06.966Z,9.53
2023-05-20T22:41:35.335Z,10.23
2023-05-20T22:44:05.183Z,8.43
2023-05-20T22:46:33.562Z,6.73
2023-05-20T22:49:01.966Z,8.37
2023-05-20T22:51:31.254Z,8.77
2023-05-20T22:53:59.551Z,7.97
2023-05-20T22:56:27.811Z,6.87
2023-05-20T22:58:56.141Z,7.03
2023-05-20T23:01:25.898Z,8.73
2023-05-20T23:03:54.408Z,9.00
2023-05-20T23:06:23.222Z,7.93
2023-05-20T23:08:52.022Z,9.13
2023-05-20T23:11:20.831Z,6.27
2023-05-20T23:13:49.224Z,9.47
2023-05-20T23:16:17.692Z,6.93
2023-05-20T23:18:47.573Z,7.37
2023-05-20T23:21:15.895Z,7.10
2023-05-20T23:23:44.116Z,6.97
2023-05-20T23:26:12.714Z,7.43
2023-05-20T23:28:41.838Z,8.30
2023-05-20T23:31:10.807Z,7.23
2023-05-20T23:33:39.180Z,9.57
2023-05-20T23:36:10.066Z,9.97
2023-05-20T23:38:38.538Z,9.33
2023-05-20T23:41:06.983Z,8.87
2023-05-20T23:43:35.570Z,7.40
2023-05-20T23:46:03.976Z,7.20
2023-05-20T23:48:32.291Z,9.87
2023-05-20T23:51:00.617Z,7.10
2023-05-20T23:53:30.603Z,9.97
2023-05-20T23:55:58.889Z,7.90
2023-05-20T23:58:27.157Z,8.03
